Time;durP1;ratioP1;P1;durP2;ratioP2;P2;SDS_P1;SDS_P2;PMS_P1;PMS_P2;Temp;Humidity;BMP_temperature;BMP_pressure;BME280_temperature;BME280_humidity;BME280_pressure;Samples;Min_cycle;Max_cycle;Signal;HPM_P1;HPM_P2
2021/10/23 00:02:10;;;;;;;0.00;0.00;;;;;;;;;;5107279;28;20320;-80
2021/10/23 00:04:37;;;;;;;0.00;0.00;;;;;;;;;;5099339;28;20189;-80
2021/10/23 00:07:06;;;;;;;0.00;0.00;;;;;;;;;;5106833;28;20198;-81
2021/10/23 00:09:33;;;;;;;0.00;0.00;;;;;;;;;;5107209;28;20608;-81
2021/10/23 00:12:02;;;;;;;0.00;0.00;;;;;;;;;;5106863;28;20210;-81
2021/10/23 00:14:29;;;;;;;0.00;0.00;;;;;;;;;;5106649;28;20208;-79
2021/10/23 00:16:57;;;;;;;0.00;0.00;;;;;;;;;;5105477;28;20193;-81
2021/10/23 00:19:24;;;;;;;0.00;0.00;;;;;;;;;;5100597;28;20201;-81
2021/10/23 00:21:52;;;;;;;0.00;0.00;;;;;;;;;;5095694;28;20233;-80
2021/10/23 00:24:19;;;;;;;0.00;0.00;;;;;;;;;;5095190;28;20195;-79
2021/10/23 00:26:47;;;;;;;0.00;0.00;;;;;;;;;;5105048;28;20204;-80
2021/10/23 00:29:16;;;;;;;0.00;0.00;;;;;;;;;;5104917;27;20216;-80
2021/10/23 00:31:43;;;;;;;0.00;0.00;;;;;;;;;;5099178;27;20220;-82
2021/10/23 00:34:10;;;;;;;0.00;0.00;;;;;;;;;;5104739;27;20213;-81
2021/10/23 00:36:38;;;;;;;0.00;0.00;;;;;;;;;;5103939;27;20577;-81
2021/10/23 00:39:06;;;;;;;0.00;0.00;;;;;;;;;;5109196;27;20291;-80
2021/10/23 00:41:34;;;;;;;0.00;0.00;;;;;;;;;;5112792;28;20225;-81
2021/10/23 00:44:01;;;;;;;0.00;0.00;;;;;;;;;;5109275;28;20205;-81
2021/10/23 00:46:30;;;;;;;0.00;0.00;;;;;;;;;;5111799;28;20229;-79
2021/10/23 00:48:57;;;;;;;0.10;0.10;;;;;;;;;;5107960;27;20589;-80
2021/10/23 00:51:25;;;;;;;0.00;0.00;;;;;;;;;;5113536;27;20194;-81
2021/10/23 00:53:52;;;;;;;0.00;0.00;;;;;;;;;;5105640;27;20198;-81
2021/10/23 00:56:20;;;;;;;0.00;0.00;;;;;;;;;;5111117;28;20548;-79
2021/10/23 00:58:47;;;;;;;0.00;0.00;;;;;;;;;;5108937;27;20190;-81
2021/10/23 01:01:15;;;;;;;0.00;0.00;;;;;;;;;;5110230;27;20232;-81
2021/10/23 01:03:44;;;;;;;0.00;0.00;;;;;;;;;;5104403;28;20194;-80
2021/10/23 01:06:11;;;;;;;0.00;0.00;;;;;;;;;;5111456;28;20205;-80
2021/10/23 01:08:40;;;;;;;0.00;0.00;;;;;;;;;;5112921;28;20197;-81
2021/10/23 01:11:07;;;;;;;0.00;0.00;;;;;;;;;;5105739;27;20209;-81
2021/10/23 01:13:35;;;;;;;0.00;0.00;;;;;;;;;;5108148;28;20205;-81
2021/10/23 01:16:02;;;;;;;0.00;0.00;;;;;;;;;;5107971;28;20209;-80
2021/10/23 01:18:30;;;;;;;0.00;0.00;;;;;;;;;;5105494;27;20203;-81
2021/10/23 01:20:59;;;;;;;0.00;0.00;;;;;;;;;;5108474;27;20234;-81
2021/10/23 01:23:26;;;;;;;0.00;0.00;;;;;;;;;;5103494;28;20555;-80
2021/10/23 01:25:54;;;;;;;0.00;0.00;;;;;;;;;;5100958;27;20203;-82
2021/10/23 01:28:21;;;;;;;0.00;0.00;;;;;;;;;;5100189;28;20664;-82
2021/10/23 01:30:49;;;;;;;0.00;0.00;;;;;;;;;;5104636;28;20532;-82
2021/10/23 01:33:16;;;;;;;0.00;0.00;;;;;;;;;;5099072;27;20198;-83
2021/10/23 01:35:43;;;;;;;0.00;0.00;;;;;;;;;;5105167;27;20222;-85
2021/10/23 01:38:12;;;;;;;0.00;0.00;;;;;;;;;;5101051;27;20202;-85
2021/10/23 01:40:40;;;;;;;0.00;0.00;;;;;;;;;;5107729;27;20697;-85
2021/10/23 01:43:07;;;;;;;0.00;0.00;;;;;;;;;;5108540;27;20205;-85
2021/10/23 01:45:35;;;;;;;0.00;0.00;;;;;;;;;;5109725;28;20223;-86
2021/10/23 01:48:02;;;;;;;0.00;0.00;;;;;;;;;;5111074;27;20663;-85
2021/10/23 01:50:30;;;;;;;0.00;0.00;;;;;;;;;;5108807;28;20202;-85
2021/10/23 01:52:58;;;;;;;0.00;0.00;;;;;;;;;;5105634;27;20213;-85
2021/10/23 01:55:27;;;;;;;0.53;0.53;;;;;;;;;;5102193;27;20615;-85
2021/10/23 01:57:56;;;;;;;0.00;0.00;;;;;;;;;;5104454;28;20205;-84
2021/10/23 02:00:24;;;;;;;0.00;0.00;;;;;;;;;;5106692;28;20248;-83
2021/10/23 02:02:51;;;;;;;0.00;0.00;;;;;;;;;;5107704;27;20273;-85
2021/10/23 02:05:18;;;;;;;0.00;0.00;;;;;;;;;;5108803;27;20689;-84
2021/10/23 02:07:46;;;;;;;0.00;0.00;;;;;;;;;;5110002;28;20205;-84
2021/10/23 02:10:13;;;;;;;0.00;0.00;;;;;;;;;;5109841;28;20641;-83
2021/10/23 02:12:42;;;;;;;0.00;0.00;;;;;;;;;;5098111;28;20224;-84
2021/10/23 02:15:10;;;;;;;0.00;0.00;;;;;;;;;;5101878;27;20573;-84
2021/10/23 02:17:38;;;;;;;0.00;0.00;;;;;;;;;;5102053;27;20289;-84
2021/10/23 02:20:06;;;;;;;0.00;0.00;;;;;;;;;;5108064;27;20203;-84
2021/10/23 02:22:34;;;;;;;0.00;0.00;;;;;;;;;;5110758;28;20236;-83
2021/10/23 02:25:01;;;;;;;0.00;0.00;;;;;;;;;;5106962;27;20202;-82
2021/10/23 02:27:29;;;;;;;0.00;0.00;;;;;;;;;;5106802;27;20193;-81
2021/10/23 02:29:57;;;;;;;0.00;0.00;;;;;;;;;;5106205;28;20207;-82
2021/10/23 02:32:25;;;;;;;0.00;0.00;;;;;;;;;;5110813;27;20209;-82
2021/10/23 02:34:52;;;;;;;0.00;0.00;;;;;;;;;;5105839;27;20202;-82
2021/10/23 02:37:20;;;;;;;0.00;0.00;;;;;;;;;;5105305;27;20209;-82
2021/10/23 02:39:47;;;;;;;0.00;0.00;;;;;;;;;;5111922;27;20197;-82
2021/10/23 02:42:15;;;;;;;0.00;0.00;;;;;;;;;;5094828;27;20826;-82
2021/10/23 02:44:43;;;;;;;0.00;0.00;;;;;;;;;;5104758;27;20210;-82
2021/10/23 02:47:12;;;;;;;0.00;0.00;;;;;;;;;;5108689;28;20225;-82
2021/10/23 02:49:39;;;;;;;0.00;0.00;;;;;;;;;;5102519;27;20204;-81
2021/10/23 02:52:07;;;;;;;0.00;0.00;;;;;;;;;;5111318;28;20198;-82
2021/10/23 02:54:34;;;;;;;0.20;0.20;;;;;;;;;;5106229;28;20197;-81
2021/10/23 02:57:02;;;;;;;0.00;0.00;;;;;;;;;;5099313;27;20671;-82
2021/10/23 02:59:29;;;;;;;2.00;1.37;;;;;;;;;;5110562;27;20202;-81
2021/10/23 03:01:57;;;;;;;0.00;0.00;;;;;;;;;;5106854;28;20232;-82
2021/10/23 03:04:25;;;;;;;0.00;0.00;;;;;;;;;;5101588;28;20289;-80
2021/10/23 03:06:53;;;;;;;1.57;0.50;;;;;;;;;;5108954;28;20194;-81
2021/10/23 03:09:21;;;;;;;0.00;0.00;;;;;;;;;;5096180;28;20198;-81
2021/10/23 03:11:48;;;;;;;0.00;0.00;;;;;;;;;;5100442;28;20247;-80
2021/10/23 03:14:16;;;;;;;0.00;0.00;;;;;;;;;;5102700;28;20209;-81
2021/10/23 03:16:43;;;;;;;0.00;0.00;;;;;;;;;;5098858;27;20632;-81
2021/10/23 03:19:11;;;;;;;0.00;0.00;;;;;;;;;;5110188;28;20200;-81
2021/10/23 03:21:40;;;;;;;0.00;0.00;;;;;;;;;;5102310;27;20226;-81
2021/10/23 03:24:07;;;;;;;0.00;0.00;;;;;;;;;;5098326;28;20201;-81
2021/10/23 03:26:36;;;;;;;0.00;0.00;;;;;;;;;;5104616;28;20198;-81
2021/10/23 03:29:03;;;;;;;0.00;0.00;;;;;;;;;;5098934;28;20206;-79
2021/10/23 03:31:32;;;;;;;0.20;0.20;;;;;;;;;;5099984;27;20197;-80
2021/10/23 03:34:00;;;;;;;0.00;0.00;;;;;;;;;;5098064;27;20252;-78
2021/10/23 03:36:27;;;;;;;0.00;0.00;;;;;;;;;;5100567;27;20200;-81
2021/10/23 03:38:56;;;;;;;0.00;0.00;;;;;;;;;;5097835;27;20197;-79
2021/10/23 03:41:23;;;;;;;0.00;0.00;;;;;;;;;;5096102;27;20315;-79
2021/10/23 03:43:51;;;;;;;0.23;0.23;;;;;;;;;;5098533;27;20201;-79
2021/10/23 03:46:18;;;;;;;0.00;0.00;;;;;;;;;;5099123;27;20702;-80
2021/10/23 03:48:45;;;;;;;0.23;0.10;;;;;;;;;;5098244;27;20201;-80
2021/10/23 03:51:13;;;;;;;0.00;0.00;;;;;;;;;;5098833;28;20607;-79
2021/10/23 03:53:40;;;;;;;0.20;0.20;;;;;;;;;;5100103;27;20197;-78
2021/10/23 03:56:09;;;;;;;0.00;0.00;;;;;;;;;;5099582;28;20209;-80
2021/10/23 03:58:36;;;;;;;0.00;0.00;;;;;;;;;;5089282;28;20192;-80
2021/10/23 04:01:04;;;;;;;0.37;0.37;;;;;;;;;;5098222;28;20206;-80
2021/10/23 04:03:31;;;;;;;0.00;0.00;;;;;;;;;;5105442;27;20212;-79
2021/10/23 04:05:59;;;;;;;0.00;0.00;;;;;;;;;;5111906;28;20206;-80
2021/10/23 04:08:27;;;;;;;0.73;0.73;;;;;;;;;;5111399;27;20203;-79
2021/10/23 04:10:54;;;;;;;0.00;0.00;;;;;;;;;;5111741;28;20219;-80
2021/10/23 04:13:23;;;;;;;0.00;0.00;;;;;;;;;;5101118;28;20193;-79
2021/10/23 04:15:52;;;;;;;0.00;0.00;;;;;;;;;;5097587;28;20204;-78
2021/10/23 04:18:19;;;;;;;0.00;0.00;;;;;;;;;;5102355;27;20715;-79
2021/10/23 04:20:47;;;;;;;0.00;0.00;;;;;;;;;;5107590;27;20293;-80
2021/10/23 04:23:14;;;;;;;0.00;0.00;;;;;;;;;;5109879;27;20228;-80
2021/10/23 04:25:42;;;;;;;0.00;0.00;;;;;;;;;;5113479;28;20671;-79
2021/10/23 04:28:09;;;;;;;0.00;0.00;;;;;;;;;;5106971;27;20714;-79
2021/10/23 04:30:51;;;;;;;0.00;0.00;;;;;;;;;;5100128;28;20206;-80
2021/10/23 04:33:20;;;;;;;0.00;0.00;;;;;;;;;;5055150;28;20199;-80
2021/10/23 04:35:48;;;;;;;0.00;0.00;;;;;;;;;;5055185;28;21129;-79
2021/10/23 04:38:16;;;;;;;0.00;0.00;;;;;;;;;;5070074;28;20202;-79
2021/10/23 04:40:43;;;;;;;0.00;0.00;;;;;;;;;;5067769;28;20211;-80
2021/10/23 04:43:11;;;;;;;0.30;0.30;;;;;;;;;;5065145;28;20219;-80
2021/10/23 04:45:39;;;;;;;0.00;0.00;;;;;;;;;;5064197;28;20231;-79
2021/10/23 04:48:07;;;;;;;0.17;0.17;;;;;;;;;;5057129;28;20284;-79
2021/10/23 04:50:36;;;;;;;0.00;0.00;;;;;;;;;;5065960;28;20211;-79
2021/10/23 04:53:03;;;;;;;0.00;0.00;;;;;;;;;;5057105;28;20208;-78
2021/10/23 04:55:30;;;;;;;0.00;0.00;;;;;;;;;;5058215;28;20569;-79
2021/10/23 04:57:58;;;;;;;0.20;0.20;;;;;;;;;;5060279;28;20199;-79
2021/10/23 05:00:26;;;;;;;0.00;0.00;;;;;;;;;;5057024;28;20680;-79
2021/10/23 05:02:53;;;;;;;0.00;0.00;;;;;;;;;;5059056;28;20254;-79
2021/10/23 05:05:21;;;;;;;0.00;0.00;;;;;;;;;;5108368;27;20209;-79
2021/10/23 05:07:50;;;;;;;0.00;0.00;;;;;;;;;;5110799;28;20204;-79
2021/10/23 05:10:18;;;;;;;0.00;0.00;;;;;;;;;;5098816;27;20210;-78
2021/10/23 05:12:46;;;;;;;0.00;0.00;;;;;;;;;;5101639;27;20197;-79
2021/10/23 05:15:13;;;;;;;0.00;0.00;;;;;;;;;;5103925;27;20202;-78
2021/10/23 05:17:41;;;;;;;0.87;0.87;;;;;;;;;;5099429;28;20194;-78
2021/10/23 05:20:09;;;;;;;0.00;0.00;;;;;;;;;;5100428;28;20662;-79
2021/10/23 05:22:36;;;;;;;0.00;0.00;;;;;;;;;;5104090;27;20235;-78
2021/10/23 05:25:06;;;;;;;0.00;0.00;;;;;;;;;;5107034;27;20205;-78
2021/10/23 05:27:33;;;;;;;0.30;0.10;;;;;;;;;;5100953;27;20776;-78
2021/10/23 05:30:01;;;;;;;0.00;0.00;;;;;;;;;;5102565;27;20571;-78
2021/10/23 05:32:28;;;;;;;0.00;0.00;;;;;;;;;;5109843;27;20201;-78
2021/10/23 05:34:55;;;;;;;0.00;0.00;;;;;;;;;;5098331;27;20210;-77
2021/10/23 05:37:23;;;;;;;0.00;0.00;;;;;;;;;;5106160;28;20694;-78
2021/10/23 05:39:50;;;;;;;0.00;0.00;;;;;;;;;;5100529;28;20783;-78
2021/10/23 05:42:19;;;;;;;0.00;0.00;;;;;;;;;;5110101;27;20225;-79
2021/10/23 05:44:47;;;;;;;0.00;0.00;;;;;;;;;;5103026;27;20201;-79
2021/10/23 05:47:14;;;;;;;0.10;0.10;;;;;;;;;;5102252;27;20237;-78
2021/10/23 05:49:42;;;;;;;0.00;0.00;;;;;;;;;;5105637;28;20297;-79
2021/10/23 05:52:09;;;;;;;0.00;0.00;;;;;;;;;;5112995;28;20232;-79
2021/10/23 05:54:38;;;;;;;0.00;0.00;;;;;;;;;;5109854;27;20649;-79
2021/10/23 05:57:08;;;;;;;0.00;0.00;;;;;;;;;;5100948;27;20202;-78
2021/10/23 05:59:41;;;;;;;0.00;0.00;;;;;;;;;;5097157;27;20229;-78
2021/10/23 06:02:22;;;;;;;0.00;0.00;;;;;;;;;;5104487;27;20229;-78
2021/10/23 06:04:50;;;;;;;0.10;0.10;;;;;;;;;;5102350;27;20200;-78
2021/10/23 06:07:18;;;;;;;0.00;0.00;;;;;;;;;;5104888;28;20210;-79
2021/10/23 06:09:46;;;;;;;0.00;0.00;;;;;;;;;;5108017;27;20220;-79
2021/10/23 06:12:13;;;;;;;0.00;0.00;;;;;;;;;;5100461;28;20198;-79
2021/10/23 06:14:42;;;;;;;0.00;0.00;;;;;;;;;;5098750;27;20301;-78
2021/10/23 06:17:10;;;;;;;0.00;0.00;;;;;;;;;;5103818;28;20206;-78
2021/10/23 06:19:38;;;;;;;0.00;0.00;;;;;;;;;;5101131;27;20208;-78
2021/10/23 06:22:06;;;;;;;0.00;0.00;;;;;;;;;;5099993;27;20206;-78
2021/10/23 06:24:34;;;;;;;0.00;0.00;;;;;;;;;;5098431;27;20206;-78
2021/10/23 06:27:01;;;;;;;0.00;0.00;;;;;;;;;;5093424;28;20216;-78
2021/10/23 06:29:30;;;;;;;0.00;0.00;;;;;;;;;;5101894;27;20197;-78
2021/10/23 06:31:58;;;;;;;0.00;0.00;;;;;;;;;;5097179;27;20258;-78
2021/10/23 06:34:26;;;;;;;0.00;0.00;;;;;;;;;;5096728;27;20209;-78
2021/10/23 06:36:53;;;;;;;0.00;0.00;;;;;;;;;;5098948;27;20210;-78
2021/10/23 06:39:21;;;;;;;0.00;0.00;;;;;;;;;;5097492;27;20566;-78
2021/10/23 06:41:48;;;;;;;0.23;0.23;;;;;;;;;;5108235;28;20689;-79
2021/10/23 06:44:15;;;;;;;0.00;0.00;;;;;;;;;;5108729;28;20628;-79
2021/10/23 06:46:43;;;;;;;0.00;0.00;;;;;;;;;;5101557;27;20241;-78
2021/10/23 06:49:12;;;;;;;0.00;0.00;;;;;;;;;;5100966;27;20206;-78
2021/10/23 06:51:39;;;;;;;0.00;0.00;;;;;;;;;;5104734;27;20297;-79
2021/10/23 06:54:07;;;;;;;0.00;0.00;;;;;;;;;;5105187;28;20201;-79
2021/10/23 06:56:35;;;;;;;0.00;0.00;;;;;;;;;;5110693;28;20201;-79
2021/10/23 06:59:02;;;;;;;0.00;0.00;;;;;;;;;;5094936;27;20220;-79
2021/10/23 07:01:30;;;;;;;0.00;0.00;;;;;;;;;;5098792;27;20188;-78
2021/10/23 07:03:57;;;;;;;0.00;0.00;;;;;;;;;;5097975;27;20229;-78
2021/10/23 07:06:26;;;;;;;0.00;0.00;;;;;;;;;;5100650;27;20207;-77
2021/10/23 07:08:54;;;;;;;0.00;0.00;;;;;;;;;;5103638;27;20240;-79
2021/10/23 07:11:21;;;;;;;0.00;0.00;;;;;;;;;;5095528;27;20284;-78
2021/10/23 07:13:49;;;;;;;0.00;0.00;;;;;;;;;;5100519;28;20581;-83
2021/10/23 07:16:16;;;;;;;1.00;1.00;;;;;;;;;;5104301;28;20201;-86
2021/10/23 07:18:44;;;;;;;0.83;0.83;;;;;;;;;;5100361;28;20202;-78
2021/10/23 07:21:11;;;;;;;0.23;0.23;;;;;;;;;;5092343;28;20197;-78
2021/10/23 07:23:40;;;;;;;0.00;0.00;;;;;;;;;;5097629;27;20555;-78
2021/10/23 07:26:08;;;;;;;0.00;0.00;;;;;;;;;;5102122;27;20646;-80
2021/10/23 07:28:35;;;;;;;0.00;0.00;;;;;;;;;;5102047;27;20209;-78
2021/10/23 07:31:03;;;;;;;0.00;0.00;;;;;;;;;;5102372;28;20205;-79
2021/10/23 07:33:30;;;;;;;0.00;0.00;;;;;;;;;;5104386;28;20208;-78
2021/10/23 07:35:57;;;;;;;0.00;0.00;;;;;;;;;;5108261;28;20555;-79
2021/10/23 07:38:25;;;;;;;0.47;0.20;;;;;;;;;;5106926;27;20295;-78
2021/10/23 07:40:53;;;;;;;0.00;0.00;;;;;;;;;;5108523;28;20685;-79
2021/10/23 07:43:21;;;;;;;0.00;0.00;;;;;;;;;;5107314;28;20709;-78
2021/10/23 07:45:51;;;;;;;0.00;0.00;;;;;;;;;;5099228;27;20225;-78
2021/10/23 07:48:21;;;;;;;0.00;0.00;;;;;;;;;;5098448;28;20206;-78
2021/10/23 07:50:49;;;;;;;0.00;0.00;;;;;;;;;;5101467;28;20535;-79
2021/10/23 07:53:17;;;;;;;0.20;0.20;;;;;;;;;;5107962;28;20208;-78
2021/10/23 07:55:45;;;;;;;0.87;0.87;;;;;;;;;;5105624;28;20237;-77
2021/10/23 07:58:14;;;;;;;0.17;0.17;;;;;;;;;;5100097;28;20216;-77
2021/10/23 08:00:41;;;;;;;0.00;0.00;;;;;;;;;;5102352;28;20209;-78
2021/10/23 08:03:08;;;;;;;0.00;0.00;;;;;;;;;;5106370;28;20224;-78
2021/10/23 08:05:37;;;;;;;0.00;0.00;;;;;;;;;;5100732;28;20682;-78
2021/10/23 08:08:05;;;;;;;0.73;0.73;;;;;;;;;;5105309;28;20307;-78
2021/10/23 08:10:33;;;;;;;0.17;0.17;;;;;;;;;;5107399;28;20202;-78
2021/10/23 08:13:02;;;;;;;0.20;0.20;;;;;;;;;;5105939;28;20205;-78
2021/10/23 08:15:32;;;;;;;0.00;0.00;;;;;;;;;;5108020;28;20284;-78
2021/10/23 08:18:01;;;;;;;0.00;0.00;;;;;;;;;;5098855;28;20204;-82
2021/10/23 08:20:29;;;;;;;0.00;0.00;;;;;;;;;;5107131;28;20245;-77
2021/10/23 08:22:57;;;;;;;0.47;0.47;;;;;;;;;;5107872;28;20225;-78
2021/10/23 08:25:24;;;;;;;0.97;0.87;;;;;;;;;;5105065;28;20211;-78
2021/10/23 08:27:52;;;;;;;0.30;0.30;;;;;;;;;;5100832;28;20671;-78
2021/10/23 08:30:20;;;;;;;1.20;0.47;;;;;;;;;;5104215;28;20558;-78
2021/10/23 08:32:49;;;;;;;17.47;7.20;;;;;;;;;;5104328;28;20288;-78
2021/10/23 08:35:17;;;;;;;0.07;0.07;;;;;;;;;;5103788;28;20209;-75
2021/10/23 08:37:45;;;;;;;0.60;0.33;;;;;;;;;;5103616;28;20300;-75
2021/10/23 08:40:13;;;;;;;0.27;0.27;;;;;;;;;;5100611;28;20671;-82
2021/10/23 08:42:41;;;;;;;0.00;0.00;;;;;;;;;;5098626;28;20205;-79
2021/10/23 08:45:10;;;;;;;0.10;0.10;;;;;;;;;;5101714;28;20229;-79
2021/10/23 08:47:39;;;;;;;2.37;2.27;;;;;;;;;;5109067;28;20220;-79
2021/10/23 08:50:09;;;;;;;0.47;0.10;;;;;;;;;;5101517;28;20217;-80
2021/10/23 08:52:36;;;;;;;0.00;0.00;;;;;;;;;;5104490;28;20202;-80
2021/10/23 08:55:04;;;;;;;0.00;0.00;;;;;;;;;;5108186;27;20197;-79
2021/10/23 08:57:32;;;;;;;0.93;0.93;;;;;;;;;;5109908;27;20193;-80
2021/10/23 08:59:59;;;;;;;0.40;0.40;;;;;;;;;;5108739;28;20202;-78
2021/10/23 09:02:27;;;;;;;0.80;0.73;;;;;;;;;;5109197;27;20197;-80
2021/10/23 09:04:56;;;;;;;0.07;0.07;;;;;;;;;;5125351;28;20233;-80
2021/10/23 09:07:25;;;;;;;0.10;0.10;;;;;;;;;;5107718;27;20238;-78
2021/10/23 09:09:54;;;;;;;0.00;0.00;;;;;;;;;;5108177;28;20289;-79
2021/10/23 09:12:22;;;;;;;0.23;0.23;;;;;;;;;;5100880;27;20206;-79
2021/10/23 09:14:58;;;;;;;0.47;0.47;;;;;;;;;;5100570;28;20255;-79
2021/10/23 09:17:26;;;;;;;0.20;0.20;;;;;;;;;;5099658;28;20193;-79
2021/10/23 09:19:54;;;;;;;2.00;1.90;;;;;;;;;;5096918;27;20209;-80
2021/10/23 09:22:27;;;;;;;0.60;0.60;;;;;;;;;;5104611;27;20289;-80
2021/10/23 09:25:09;;;;;;;0.00;0.00;;;;;;;;;;5097815;28;20253;-81
2021/10/23 09:27:37;;;;;;;0.30;0.30;;;;;;;;;;5098903;27;20605;-79
2021/10/23 09:30:13;;;;;;;1.27;0.80;;;;;;;;;;5108077;28;20228;-80
2021/10/23 09:32:40;;;;;;;9.23;6.30;;;;;;;;;;5101142;28;20202;-80
2021/10/23 09:35:11;;;;;;;1.57;1.47;;;;;;;;;;5102490;27;20210;-80
2021/10/23 09:37:42;;;;;;;0.10;0.10;;;;;;;;;;5111781;28;20320;-79
2021/10/23 09:40:10;;;;;;;0.30;0.30;;;;;;;;;;5109505;28;20285;-79
2021/10/23 09:42:38;;;;;;;0.60;0.60;;;;;;;;;;5100760;28;20267;-79
2021/10/23 09:45:06;;;;;;;0.23;0.23;;;;;;;;;;5109290;27;20229;-80
2021/10/23 09:47:37;;;;;;;0.00;0.00;;;;;;;;;;5109720;27;20781;-78
2021/10/23 09:50:11;;;;;;;2.90;2.30;;;;;;;;;;5108080;28;20208;-79
2021/10/23 09:52:54;;;;;;;0.60;0.53;;;;;;;;;;5109167;28;20198;-79
2021/10/23 09:55:23;;;;;;;0.00;0.00;;;;;;;;;;5106260;28;20729;-79
2021/10/23 09:58:05;;;;;;;0.20;0.20;;;;;;;;;;5107804;27;21144;-79
2021/10/23 10:00:33;;;;;;;0.00;0.00;;;;;;;;;;5107761;28;20270;-78
2021/10/23 10:03:02;;;;;;;1.40;0.87;;;;;;;;;;5108145;28;20713;-79
2021/10/23 10:05:33;;;;;;;0.30;0.20;;;;;;;;;;5107346;27;20257;-78
2021/10/23 10:08:01;;;;;;;0.40;0.40;;;;;;;;;;5102816;27;20217;-81
2021/10/23 10:10:30;;;;;;;0.53;0.53;;;;;;;;;;5109023;28;20212;-78
2021/10/23 10:12:58;;;;;;;0.00;0.00;;;;;;;;;;5108751;28;20202;-80
2021/10/23 10:15:26;;;;;;;0.93;0.93;;;;;;;;;;5106314;27;20670;-78
2021/10/23 10:17:54;;;;;;;0.00;0.00;;;;;;;;;;5109987;28;20604;-80
2021/10/23 10:20:22;;;;;;;0.27;0.27;;;;;;;;;;5107900;28;20640;-79
2021/10/23 10:22:54;;;;;;;0.77;0.77;;;;;;;;;;5102815;28;20225;-80
2021/10/23 10:25:22;;;;;;;0.40;0.40;;;;;;;;;;5106255;27;20232;-80
2021/10/23 10:27:52;;;;;;;0.10;0.10;;;;;;;;;;5108800;27;20652;-79
2021/10/23 10:30:25;;;;;;;0.00;0.00;;;;;;;;;;5108655;28;20197;-79
2021/10/23 10:32:53;;;;;;;0.00;0.00;;;;;;;;;;5108445;28;20229;-79
2021/10/23 10:35:53;;;;;;;0.00;0.00;;;;;;;;;;5109401;28;20711;-79
2021/10/23 10:44:08;;;;;;;1.70;1.13;;;;;;;;;;5107778;28;20283;-79
2021/10/23 10:46:50;;;;;;;0.50;0.50;;;;;;;;;;5099760;27;20325;-79
2021/10/23 10:49:33;;;;;;;0.67;0.67;;;;;;;;;;5090944;28;20315;-79
2021/10/23 10:52:02;;;;;;;0.00;0.00;;;;;;;;;;5110119;28;20241;-78
2021/10/23 10:54:29;;;;;;;1.90;0.67;;;;;;;;;;5108463;28;20202;-78
2021/10/23 10:56:57;;;;;;;1.27;1.17;;;;;;;;;;5108187;27;20202;-78
2021/10/23 10:59:43;;;;;;;1.70;1.03;;;;;;;;;;5112040;27;20736;-78
2021/10/23 11:02:12;;;;;;;2.20;2.00;;;;;;;;;;5110388;28;20285;-78
2021/10/23 11:04:55;;;;;;;0.10;0.10;;;;;;;;;;5105778;28;20217;-78
2021/10/23 11:07:24;;;;;;;0.10;0.10;;;;;;;;;;5102655;28;20209;-78
2021/10/23 11:09:51;;;;;;;0.00;0.00;;;;;;;;;;5107263;27;20208;-79
2021/10/23 11:12:29;;;;;;;0.40;0.20;;;;;;;;;;5109841;28;20197;-77
2021/10/23 11:14:58;;;;;;;0.60;0.60;;;;;;;;;;5108616;27;20201;-77
2021/10/23 11:17:25;;;;;;;0.53;0.53;;;;;;;;;;5108470;28;20206;-76
2021/10/23 11:19:54;;;;;;;0.80;0.80;;;;;;;;;;5108628;28;20215;-77
2021/10/23 11:22:25;;;;;;;0.00;0.00;;;;;;;;;;5110675;28;20208;-76
2021/10/23 11:24:55;;;;;;;0.27;0.27;;;;;;;;;;5106103;27;20582;-77
2021/10/23 11:27:27;;;;;;;0.10;0.10;;;;;;;;;;5106083;28;20194;-77
2021/10/23 11:30:08;;;;;;;0.00;0.00;;;;;;;;;;5108754;28;20202;-76
2021/10/23 11:32:37;;;;;;;1.03;0.77;;;;;;;;;;5110349;28;20241;-76
2021/10/23 11:35:05;;;;;;;0.00;0.00;;;;;;;;;;5107696;28;20197;-75
2021/10/23 11:37:34;;;;;;;0.83;0.83;;;;;;;;;;5106811;28;20194;-77
2021/10/23 11:40:02;;;;;;;0.77;0.57;;;;;;;;;;5108107;28;20202;-78
2021/10/23 11:42:30;;;;;;;0.83;0.83;;;;;;;;;;5109184;28;20197;-78
2021/10/23 11:44:58;;;;;;;0.50;0.43;;;;;;;;;;5101030;28;20222;-75
2021/10/23 11:47:26;;;;;;;0.00;0.00;;;;;;;;;;5105547;28;20236;-75
2021/10/23 11:49:55;;;;;;;0.00;0.00;;;;;;;;;;5108496;28;20207;-75
2021/10/23 11:52:26;;;;;;;0.20;0.17;;;;;;;;;;5109945;28;20220;-76
2021/10/23 11:54:56;;;;;;;2.03;1.83;;;;;;;;;;5106492;28;20216;-75
2021/10/23 11:57:34;;;;;;;0.00;0.00;;;;;;;;;;5106579;28;20193;-76
2021/10/23 12:00:03;;;;;;;0.00;0.00;;;;;;;;;;5111789;28;20205;-76
2021/10/23 12:02:48;;;;;;;0.00;0.00;;;;;;;;;;5110194;28;20200;-76
2021/10/23 12:05:22;;;;;;;0.40;0.40;;;;;;;;;;5105709;28;20766;-75
2021/10/23 12:08:07;;;;;;;0.00;0.00;;;;;;;;;;5106803;28;20204;-75
2021/10/23 12:10:50;;;;;;;0.00;0.00;;;;;;;;;;5105895;28;20201;-75
2021/10/23 12:13:17;;;;;;;0.20;0.20;;;;;;;;;;5102810;28;20194;-76
2021/10/23 12:15:45;;;;;;;1.67;1.57;;;;;;;;;;5107467;28;20198;-75
2021/10/23 12:18:12;;;;;;;0.77;0.77;;;;;;;;;;5106839;28;20202;-75
2021/10/23 12:20:40;;;;;;;0.00;0.00;;;;;;;;;;5107418;28;20198;-75
2021/10/23 12:23:07;;;;;;;0.00;0.00;;;;;;;;;;5104509;28;20563;-75
2021/10/23 12:25:39;;;;;;;0.00;0.00;;;;;;;;;;5109707;27;20316;-75
2021/10/23 12:28:08;;;;;;;2.43;1.70;;;;;;;;;;5110736;28;20291;-75
2021/10/23 12:30:36;;;;;;;0.50;0.50;;;;;;;;;;5107414;28;20698;-75
2021/10/23 12:33:03;;;;;;;3.20;0.97;;;;;;;;;;5112938;27;20206;-74
2021/10/23 12:35:31;;;;;;;0.30;0.30;;;;;;;;;;5110197;28;20198;-75
2021/10/23 12:38:00;;;;;;;0.00;0.00;;;;;;;;;;5110808;28;20689;-74
2021/10/23 12:40:29;;;;;;;1.23;0.47;;;;;;;;;;5111859;28;20206;-76
2021/10/23 12:43:03;;;;;;;0.00;0.00;;;;;;;;;;5111175;28;20198;-74
2021/10/23 12:45:32;;;;;;;0.00;0.00;;;;;;;;;;5110303;27;20274;-74
2021/10/23 12:48:03;;;;;;;0.00;0.00;;;;;;;;;;5109480;28;20206;-74
2021/10/23 12:50:30;;;;;;;0.30;0.30;;;;;;;;;;5110633;28;20727;-74
2021/10/23 12:52:58;;;;;;;0.10;0.10;;;;;;;;;;5105432;27;20822;-75
2021/10/23 12:55:26;;;;;;;0.00;0.00;;;;;;;;;;5109390;28;20212;-74
2021/10/23 12:57:54;;;;;;;0.00;0.00;;;;;;;;;;5109851;27;20202;-73
2021/10/23 13:00:22;;;;;;;0.00;0.00;;;;;;;;;;5114170;27;20197;-73
2021/10/23 13:02:51;;;;;;;0.30;0.20;;;;;;;;;;5111751;28;20205;-75
2021/10/23 13:05:20;;;;;;;0.00;0.00;;;;;;;;;;5105912;27;20610;-76
2021/10/23 13:07:47;;;;;;;0.00;0.00;;;;;;;;;;5110959;27;20205;-74
2021/10/23 13:10:15;;;;;;;0.00;0.00;;;;;;;;;;5113099;28;20206;-74
2021/10/23 13:12:43;;;;;;;0.77;0.30;;;;;;;;;;5108809;28;20197;-73
2021/10/23 13:15:12;;;;;;;0.27;0.27;;;;;;;;;;5105040;28;20202;-74
2021/10/23 13:17:39;;;;;;;0.10;0.10;;;;;;;;;;5107127;28;20229;-74
2021/10/23 13:20:09;;;;;;;1.90;0.40;;;;;;;;;;5112220;28;20208;-74
2021/10/23 13:22:36;;;;;;;0.00;0.00;;;;;;;;;;5108607;28;20217;-73
2021/10/23 13:25:05;;;;;;;1.00;1.00;;;;;;;;;;5106932;27;20316;-74
2021/10/23 13:27:32;;;;;;;0.20;0.20;;;;;;;;;;5106987;28;20201;-73
2021/10/23 13:30:00;;;;;;;0.30;0.20;;;;;;;;;;5111592;28;20724;-73
2021/10/23 13:32:27;;;;;;;0.05;0.05;;;;;;;;;;5109429;28;20251;-73
2021/10/23 13:34:55;;;;;;;0.00;0.00;;;;;;;;;;5104599;27;20210;-72
2021/10/23 13:37:24;;;;;;;0.00;0.00;;;;;;;;;;5112120;28;21177;-73
2021/10/23 13:39:56;;;;;;;0.00;0.00;;;;;;;;;;5110675;28;20209;-72
2021/10/23 13:42:23;;;;;;;0.00;0.00;;;;;;;;;;5109798;28;20201;-72
2021/10/23 13:44:51;;;;;;;0.70;0.32;;;;;;;;;;5106153;28;20686;-72
2021/10/23 13:47:21;;;;;;;0.50;0.50;;;;;;;;;;5108085;28;20678;-72
2021/10/23 13:49:48;;;;;;;0.10;0.10;;;;;;;;;;5110395;28;20202;-72
2021/10/23 13:52:16;;;;;;;0.23;0.23;;;;;;;;;;5109388;28;20658;-72
2021/10/23 13:54:44;;;;;;;0.00;0.00;;;;;;;;;;5105676;27;20207;-72
2021/10/23 13:57:12;;;;;;;2.88;1.65;;;;;;;;;;5110819;28;20206;-72
2021/10/23 13:59:39;;;;;;;0.00;0.00;;;;;;;;;;5109192;28;20655;-71
2021/10/23 14:02:07;;;;;;;0.70;0.45;;;;;;;;;;5108797;28;20202;-72
2021/10/23 14:04:34;;;;;;;0.05;0.05;;;;;;;;;;5103196;28;20566;-72
2021/10/23 14:07:03;;;;;;;0.00;0.00;;;;;;;;;;5111491;28;20225;-72
2021/10/23 14:09:31;;;;;;;0.00;0.00;;;;;;;;;;5109503;28;20197;-71
2021/10/23 14:12:00;;;;;;;0.10;0.10;;;;;;;;;;5108168;28;20197;-72
2021/10/23 14:14:27;;;;;;;0.00;0.00;;;;;;;;;;5106890;27;20201;-71
2021/10/23 14:16:55;;;;;;;0.10;0.10;;;;;;;;;;5109509;28;20564;-71
2021/10/23 14:19:22;;;;;;;0.00;0.00;;;;;;;;;;5108997;28;20233;-71
2021/10/23 14:21:50;;;;;;;0.00;0.00;;;;;;;;;;5108117;28;20197;-71
2021/10/23 14:24:19;;;;;;;0.00;0.00;;;;;;;;;;5108820;28;20229;-71
2021/10/23 14:26:48;;;;;;;1.00;0.37;;;;;;;;;;5106972;28;20194;-71
2021/10/23 14:29:17;;;;;;;0.00;0.00;;;;;;;;;;5108098;28;20236;-71
2021/10/23 14:31:45;;;;;;;0.00;0.00;;;;;;;;;;5109709;27;20197;-71
2021/10/23 14:34:12;;;;;;;0.00;0.00;;;;;;;;;;5111040;28;20197;-71
2021/10/23 14:36:40;;;;;;;0.63;0.63;;;;;;;;;;5108852;28;20206;-71
2021/10/23 14:39:07;;;;;;;0.00;0.00;;;;;;;;;;5108799;28;20491;-71
2021/10/23 14:41:35;;;;;;;0.00;0.00;;;;;;;;;;5109911;28;20202;-71
2021/10/23 14:44:02;;;;;;;0.57;0.57;;;;;;;;;;5108378;27;20659;-71
2021/10/23 14:46:32;;;;;;;0.43;0.43;;;;;;;;;;5107241;28;20241;-71
2021/10/23 14:48:59;;;;;;;0.00;0.00;;;;;;;;;;5108008;28;20206;-71
2021/10/23 14:51:27;;;;;;;0.50;0.50;;;;;;;;;;5108902;28;20201;-71
2021/10/23 14:53:54;;;;;;;0.00;0.00;;;;;;;;;;5108722;28;20197;-71
2021/10/23 14:56:22;;;;;;;0.00;0.00;;;;;;;;;;5104840;28;20688;-70
2021/10/23 14:58:49;;;;;;;0.00;0.00;;;;;;;;;;5108666;27;20289;-71